sensor_id;sensor_type;location;lat;lon;timestamp;pressure;altitude;pressure_sealevel;temperature;humidity
41334;BME280;27078;46.428;6.256;2023-05-29T00:01:05;96231.63;;;16.94;68.22
41334;BME280;27078;46.428;6.256;2023-05-29T00:03:33;96239.28;;;17.12;66.19
41334;BME280;27078;46.428;6.256;2023-05-29T00:05:58;96236.06;;;17.16;70.90
41334;BME280;27078;46.428;6.256;2023-05-29T00:08:26;96237.16;;;17.07;67.51
41334;BME280;27078;46.428;6.256;2023-05-29T00:10:51;96241.59;;;17.00;68.53
41334;BME280;27078;46.428;6.256;2023-05-29T00:13:16;96241.00;;;16.89;75.12
41334;BME280;27078;46.428;6.256;2023-05-29T00:15:42;96238.44;;;16.73;82.09
41334;BME280;27078;46.428;6.256;2023-05-29T00:18:07;96245.25;;;16.53;82.04
41334;BME280;27078;46.428;6.256;2023-05-29T00:20:32;96239.66;;;16.47;84.96
41334;BME280;27078;46.428;6.256;2023-05-29T00:22:59;96250.06;;;16.34;85.37
41334;BME280;27078;46.428;6.256;2023-05-29T00:25:27;96256.09;;;16.28;85.99
41334;BME280;27078;46.428;6.256;2023-05-29T00:27:52;96261.81;;;16.17;88.53
41334;BME280;27078;46.428;6.256;2023-05-29T00:30:17;96257.56;;;16.07;88.69
41334;BME280;27078;46.428;6.256;2023-05-29T00:32:43;96254.09;;;15.99;89.74
41334;BME280;27078;46.428;6.256;2023-05-29T00:35:08;96251.63;;;15.97;90.46
41334;BME280;27078;46.428;6.256;2023-05-29T00:37:34;96254.31;;;15.89;95.42
41334;BME280;27078;46.428;6.256;2023-05-29T00:39:59;96243.84;;;15.87;91.24
41334;BME280;27078;46.428;6.256;2023-05-29T00:42:25;96249.31;;;15.94;95.79
41334;BME280;27078;46.428;6.256;2023-05-29T00:44:50;96253.19;;;15.83;93.35
41334;BME280;27078;46.428;6.256;2023-05-29T00:47:16;96244.06;;;15.78;100.00
41334;BME280;27078;46.428;6.256;2023-05-29T00:49:42;96248.63;;;15.53;100.00
41334;BME280;27078;46.428;6.256;2023-05-29T00:52:09;96237.53;;;15.41;100.00
41334;BME280;27078;46.428;6.256;2023-05-29T00:54:35;96245.69;;;15.31;100.00
41334;BME280;27078;46.428;6.256;2023-05-29T00:57:02;96237.22;;;15.27;100.00
41334;BME280;27078;46.428;6.256;2023-05-29T00:59:30;96243.41;;;15.20;100.00
41334;BME280;27078;46.428;6.256;2023-05-29T01:01:57;96247.88;;;15.19;98.66
41334;BME280;27078;46.428;6.256;2023-05-29T01:04:25;96247.19;;;15.25;100.00
41334;BME280;27078;46.428;6.256;2023-05-29T01:06:51;96256.69;;;15.20;100.00
41334;BME280;27078;46.428;6.256;2023-05-29T01:09:17;96246.25;;;15.10;100.00
41334;BME280;27078;46.428;6.256;2023-05-29T01:20:25;96261.59;;;14.75;100.00
41334;BME280;27078;46.428;6.256;2023-05-29T01:23:07;96256.56;;;14.72;100.00
41334;BME280;27078;46.428;6.256;2023-05-29T01:28:12;96260.34;;;15.19;94.13
41334;BME280;27078;46.428;6.256;2023-05-29T01:30:39;96265.66;;;15.27;92.12
41334;BME280;27078;46.428;6.256;2023-05-29T01:33:05;96265.81;;;15.25;96.62
41334;BME280;27078;46.428;6.256;2023-05-29T01:35:32;96272.16;;;15.08;99.07
41334;BME280;27078;46.428;6.256;2023-05-29T01:37:57;96262.72;;;15.05;96.63
41334;BME280;27078;46.428;6.256;2023-05-29T01:40:23;96266.84;;;15.00;96.71
41334;BME280;27078;46.428;6.256;2023-05-29T01:42:49;96257.75;;;14.86;100.00
41334;BME280;27078;46.428;6.256;2023-05-29T01:45:15;96267.88;;;14.74;100.00
41334;BME280;27078;46.428;6.256;2023-05-29T01:47:42;96262.56;;;14.66;100.00
41334;BME280;27078;46.428;6.256;2023-05-29T01:50:08;96265.84;;;14.52;100.00
41334;BME280;27078;46.428;6.256;2023-05-29T01:52:36;96266.16;;;14.40;100.00
41334;BME280;27078;46.428;6.256;2023-05-29T01:55:01;96260.84;;;14.40;100.00
41334;BME280;27078;46.428;6.256;2023-05-29T01:57:27;96264.84;;;14.44;100.00
41334;BME280;27078;46.428;6.256;2023-05-29T01:59:53;96262.50;;;14.50;100.00
41334;BME280;27078;46.428;6.256;2023-05-29T02:02:21;96261.19;;;14.45;100.00
41334;BME280;27078;46.428;6.256;2023-05-29T02:04:47;96260.31;;;14.29;100.00
41334;BME280;27078;46.428;6.256;2023-05-29T02:07:12;96260.03;;;14.40;100.00
41334;BME280;27078;46.428;6.256;2023-05-29T02:09:37;96255.53;;;14.40;100.00
41334;BME280;27078;46.428;6.256;2023-05-29T02:12:03;96254.19;;;14.28;100.00
41334;BME280;27078;46.428;6.256;2023-05-29T02:14:28;96253.84;;;14.15;100.00
41334;BME280;27078;46.428;6.256;2023-05-29T02:16:54;96253.66;;;14.00;100.00
41334;BME280;27078;46.428;6.256;2023-05-29T02:19:19;96256.78;;;13.95;100.00
41334;BME280;27078;46.428;6.256;2023-05-29T02:21:47;96253.09;;;13.88;100.00
41334;BME280;27078;46.428;6.256;2023-05-29T02:24:12;96259.44;;;13.95;100.00
41334;BME280;27078;46.428;6.256;2023-05-29T02:26:37;96253.66;;;14.00;100.00
41334;BME280;27078;46.428;6.256;2023-05-29T02:29:03;96245.69;;;14.00;100.00
41334;BME280;27078;46.428;6.256;2023-05-29T02:31:31;96244.00;;;13.99;100.00
41334;BME280;27078;46.428;6.256;2023-05-29T02:33:57;96249.97;;;13.84;100.00
41334;BME280;27078;46.428;6.256;2023-05-29T02:36:23;96246.94;;;13.79;100.00
41334;BME280;27078;46.428;6.256;2023-05-29T02:38:48;96243.59;;;13.69;100.00
41334;BME280;27078;46.428;6.256;2023-05-29T02:41:13;96246.34;;;13.51;100.00
41334;BME280;27078;46.428;6.256;2023-05-29T02:43:39;96243.28;;;13.72;100.00
41334;BME280;27078;46.428;6.256;2023-05-29T02:46:04;96231.84;;;13.72;100.00
41334;BME280;27078;46.428;6.256;2023-05-29T02:48:29;96238.50;;;13.76;100.00
41334;BME280;27078;46.428;6.256;2023-05-29T02:50:55;96233.50;;;13.73;99.72
41334;BME280;27078;46.428;6.256;2023-05-29T02:53:20;96224.84;;;13.71;100.00
41334;BME280;27078;46.428;6.256;2023-05-29T02:55:46;96230.31;;;13.61;100.00
41334;BME280;27078;46.428;6.256;2023-05-29T02:58:12;96231.88;;;13.46;100.00
41334;BME280;27078;46.428;6.256;2023-05-29T03:00:38;96232.53;;;13.39;100.00
41334;BME280;27078;46.428;6.256;2023-05-29T03:03:03;96232.06;;;13.52;100.00
41334;BME280;27078;46.428;6.256;2023-05-29T03:05:29;96232.94;;;13.53;100.00
41334;BME280;27078;46.428;6.256;2023-05-29T03:07:55;96227.94;;;13.50;100.00
41334;BME280;27078;46.428;6.256;2023-05-29T03:10:20;96229.78;;;13.57;99.96
41334;BME280;27078;46.428;6.256;2023-05-29T03:12:46;96233.34;;;13.74;95.34
41334;BME280;27078;46.428;6.256;2023-05-29T03:15:12;96233.19;;;13.84;97.77
41334;BME280;27078;46.428;6.256;2023-05-29T03:17:37;96233.19;;;13.76;97.62
41334;BME280;27078;46.428;6.256;2023-05-29T03:20:04;96233.97;;;13.68;99.98
41334;BME280;27078;46.428;6.256;2023-05-29T03:22:34;96234.28;;;13.65;97.42
41334;BME280;27078;46.428;6.256;2023-05-29T03:25:01;96237.28;;;13.62;99.25
41334;BME280;27078;46.428;6.256;2023-05-29T03:27:26;96231.09;;;13.53;100.00
41334;BME280;27078;46.428;6.256;2023-05-29T03:29:52;96229.09;;;13.47;100.00
41334;BME280;27078;46.428;6.256;2023-05-29T03:32:17;96231.25;;;13.52;99.77
41334;BME280;27078;46.428;6.256;2023-05-29T03:34:43;96224.41;;;13.41;100.00
41334;BME280;27078;46.428;6.256;2023-05-29T03:37:08;96227.19;;;13.31;100.00
41334;BME280;27078;46.428;6.256;2023-05-29T03:39:33;96234.75;;;13.26;100.00
41334;BME280;27078;46.428;6.256;2023-05-29T03:41:59;96240.84;;;13.18;100.00
41334;BME280;27078;46.428;6.256;2023-05-29T03:44:25;96240.84;;;13.18;100.00
41334;BME280;27078;46.428;6.256;2023-05-29T03:46:50;96233.88;;;13.17;100.00
41334;BME280;27078;46.428;6.256;2023-05-29T03:49:16;96232.22;;;13.16;100.00
41334;BME280;27078;46.428;6.256;2023-05-29T03:51:41;96240.44;;;13.05;100.00
41334;BME280;27078;46.428;6.256;2023-05-29T03:54:06;96242.22;;;12.96;100.00
41334;BME280;27078;46.428;6.256;2023-05-29T03:56:32;96243.66;;;12.91;100.00
41334;BME280;27078;46.428;6.256;2023-05-29T03:58:57;96244.59;;;12.81;100.00
41334;BME280;27078;46.428;6.256;2023-05-29T04:01:22;96241.88;;;12.73;100.00
41334;BME280;27078;46.428;6.256;2023-05-29T04:03:48;96248.53;;;12.77;100.00
41334;BME280;27078;46.428;6.256;2023-05-29T04:06:13;96243.84;;;12.71;100.00
41334;BME280;27078;46.428;6.256;2023-05-29T04:08:38;96241.97;;;12.63;100.00
41334;BME280;27078;46.428;6.256;2023-05-29T04:11:04;96248.78;;;12.66;100.00
41334;BME280;27078;46.428;6.256;2023-05-29T04:13:30;96248.53;;;12.77;100.00
41334;BME280;27078;46.428;6.256;2023-05-29T04:15:55;96260.50;;;12.81;100.00
41334;BME280;27078;46.428;6.256;2023-05-29T04:18:21;96261.84;;;12.86;100.00
41334;BME280;27078;46.428;6.256;2023-05-29T04:20:46;96254.44;;;12.89;100.00
41334;BME280;27078;46.428;6.256;2023-05-29T04:23:12;96263.09;;;12.99;100.00
41334;BME280;27078;46.428;6.256;2023-05-29T04:25:38;96260.97;;;13.03;100.00
41334;BME280;27078;46.428;6.256;2023-05-29T04:28:03;96259.66;;;13.07;100.00
41334;BME280;27078;46.428;6.256;2023-05-29T04:30:29;96266.38;;;13.19;100.00
41334;BME280;27078;46.428;6.256;2023-05-29T04:32:54;96281.06;;;13.32;100.00
41334;BME280;27078;46.428;6.256;2023-05-29T04:35:20;96280.59;;;13.36;100.00
41334;BME280;27078;46.428;6.256;2023-05-29T04:37:47;96282.47;;;13.52;99.96
41334;BME280;27078;46.428;6.256;2023-05-29T04:40:12;96283.88;;;13.64;100.00
41334;BME280;27078;46.428;6.256;2023-05-29T04:42:42;96276.78;;;13.73;99.16
41334;BME280;27078;46.428;6.256;2023-05-29T04:45:10;96282.78;;;13.83;95.22
41334;BME280;27078;46.428;6.256;2023-05-29T04:47:36;96291.94;;;13.89;95.99
41334;BME280;27078;46.428;6.256;2023-05-29T04:50:16;96279.72;;;14.04;93.68
41334;BME280;27078;46.428;6.256;2023-05-29T04:52:41;96282.34;;;14.04;96.25
41334;BME280;27078;46.428;6.256;2023-05-29T04:55:07;96280.72;;;14.03;96.19
41334;BME280;27078;46.428;6.256;2023-05-29T04:57:32;96289.34;;;14.14;95.34
41334;BME280;27078;46.428;6.256;2023-05-29T04:59:58;96287.34;;;14.16;95.97
41334;BME280;27078;46.428;6.256;2023-05-29T05:02:23;96282.06;;;14.24;100.00
41334;BME280;27078;46.428;6.256;2023-05-29T05:04:48;96285.59;;;14.24;98.97
41334;BME280;27078;46.428;6.256;2023-05-29T05:07:15;96291.88;;;14.32;100.00
41334;BME280;27078;46.428;6.256;2023-05-29T05:09:41;96293.88;;;14.30;100.00
41334;BME280;27078;46.428;6.256;2023-05-29T05:12:07;96294.41;;;14.33;100.00
41334;BME280;27078;46.428;6.256;2023-05-29T05:14:32;96294.72;;;14.38;100.00
41334;BME280;27078;46.428;6.256;2023-05-29T05:16:58;96300.75;;;14.57;100.00
41334;BME280;27078;46.428;6.256;2023-05-29T05:19:23;96296.13;;;14.67;100.00
41334;BME280;27078;46.428;6.256;2023-05-29T05:21:48;96295.94;;;14.93;100.00
41334;BME280;27078;46.428;6.256;2023-05-29T05:24:14;96293.09;;;15.11;94.32
41334;BME280;27078;46.428;6.256;2023-05-29T05:26:39;96293.41;;;15.33;93.82
41334;BME280;27078;46.428;6.256;2023-05-29T05:29:05;96292.50;;;15.57;77.05
41334;BME280;27078;46.428;6.256;2023-05-29T05:31:30;96279.84;;;15.75;78.79
41334;BME280;27078;46.428;6.256;2023-05-29T05:33:55;96289.25;;;15.94;81.43
41334;BME280;27078;46.428;6.256;2023-05-29T05:36:21;96285.00;;;16.08;76.91
41334;BME280;27078;46.428;6.256;2023-05-29T05:38:46;96287.75;;;16.23;81.35
41334;BME280;27078;46.428;6.256;2023-05-29T05:41:11;96287.72;;;16.31;73.25
41334;BME280;27078;46.428;6.256;2023-05-29T05:43:37;96288.81;;;16.45;74.52
41334;BME280;27078;46.428;6.256;2023-05-29T05:46:02;96290.88;;;16.58;79.45
41334;BME280;27078;46.428;6.256;2023-05-29T05:48:28;96293.13;;;16.69;77.67
41334;BME280;27078;46.428;6.256;2023-05-29T05:50:53;96288.38;;;16.79;78.42
41334;BME280;27078;46.428;6.256;2023-05-29T05:53:18;96289.13;;;16.96;76.90
41334;BME280;27078;46.428;6.256;2023-05-29T05:55:43;96293.72;;;17.02;75.23
41334;BME280;27078;46.428;6.256;2023-05-29T05:58:09;96289.81;;;17.13;75.75
41334;BME280;27078;46.428;6.256;2023-05-29T06:00:34;96288.06;;;17.20;73.95
41334;BME280;27078;46.428;6.256;2023-05-29T06:03:00;96295.00;;;17.29;76.24
41334;BME280;27078;46.428;6.256;2023-05-29T06:05:27;96295.91;;;17.37;76.56
41334;BME280;27078;46.428;6.256;2023-05-29T06:07:53;96306.31;;;17.46;84.04
41334;BME280;27078;46.428;6.256;2023-05-29T06:10:18;96303.84;;;17.45;87.44
41334;BME280;27078;46.428;6.256;2023-05-29T06:12:44;96306.13;;;17.48;95.30
41334;BME280;27078;46.428;6.256;2023-05-29T06:15:09;96297.75;;;17.51;100.00
41334;BME280;27078;46.428;6.256;2023-05-29T06:17:34;96304.31;;;17.48;100.00
41334;BME280;27078;46.428;6.256;2023-05-29T06:20:00;96307.78;;;17.49;100.00
41334;BME280;27078;46.428;6.256;2023-05-29T06:22:25;96308.28;;;17.53;100.00
41334;BME280;27078;46.428;6.256;2023-05-29T06:24:51;96309.75;;;17.55;100.00
41334;BME280;27078;46.428;6.256;2023-05-29T06:27:16;96315.16;;;17.62;100.00
41334;BME280;27078;46.428;6.256;2023-05-29T06:29:43;96318.56;;;17.70;100.00
41334;BME280;27078;46.428;6.256;2023-05-29T06:32:08;96315.13;;;17.85;100.00
41334;BME280;27078;46.428;6.256;2023-05-29T06:34:33;96319.97;;;17.96;100.00
41334;BME280;27078;46.428;6.256;2023-05-29T06:36:59;96322.47;;;18.13;100.00
41334;BME280;27078;46.428;6.256;2023-05-29T06:39:24;96314.69;;;18.18;89.64
41334;BME280;27078;46.428;6.256;2023-05-29T06:41:50;96324.28;;;18.27;88.22
41334;BME280;27078;46.428;6.256;2023-05-29T06:44:15;96320.47;;;18.36;90.02
41334;BME280;27078;46.428;6.256;2023-05-29T06:46:40;96322.53;;;18.56;81.12
41334;BME280;27078;46.428;6.256;2023-05-29T06:49:06;96323.13;;;18.72;77.13
41334;BME280;27078;46.428;6.256;2023-05-29T06:51:33;96322.47;;;18.85;75.13
41334;BME280;27078;46.428;6.256;2023-05-29T06:53:58;96316.16;;;18.93;74.70
41334;BME280;27078;46.428;6.256;2023-05-29T06:56:24;96319.97;;;19.05;73.56
41334;BME280;27078;46.428;6.256;2023-05-29T06:58:50;96326.47;;;19.18;67.34
41334;BME280;27078;46.428;6.256;2023-05-29T07:01:16;96320.78;;;19.27;66.29
41334;BME280;27078;46.428;6.256;2023-05-29T07:03:42;96325.75;;;19.30;60.86
41334;BME280;27078;46.428;6.256;2023-05-29T07:06:07;96325.59;;;19.39;62.88
41334;BME280;27078;46.428;6.256;2023-05-29T07:08:33;96326.47;;;19.46;64.55
41334;BME280;27078;46.428;6.256;2023-05-29T07:10:58;96327.84;;;19.63;66.62
41334;BME280;27078;46.428;6.256;2023-05-29T07:13:25;96331.41;;;19.70;65.66
41334;BME280;27078;46.428;6.256;2023-05-29T07:15:51;96333.28;;;19.77;63.62
41334;BME280;27078;46.428;6.256;2023-05-29T07:18:16;96328.22;;;19.88;62.76
41334;BME280;27078;46.428;6.256;2023-05-29T07:20:41;96332.38;;;19.98;60.19
41334;BME280;27078;46.428;6.256;2023-05-29T07:23:07;96332.41;;;20.04;58.65
41334;BME280;27078;46.428;6.256;2023-05-29T07:25:32;96318.22;;;20.10;60.98
41334;BME280;27078;46.428;6.256;2023-05-29T07:27:58;96314.13;;;20.14;59.71
41334;BME280;27078;46.428;6.256;2023-05-29T07:30:23;96319.31;;;20.23;60.87
41334;BME280;27078;46.428;6.256;2023-05-29T07:32:49;96312.78;;;20.39;61.92
41334;BME280;27078;46.428;6.256;2023-05-29T07:35:14;96310.31;;;20.44;56.54
41334;BME280;27078;46.428;6.256;2023-05-29T07:37:40;96310.81;;;20.61;55.06
41334;BME280;27078;46.428;6.256;2023-05-29T07:40:05;96314.94;;;20.70;53.86
41334;BME280;27078;46.428;6.256;2023-05-29T07:42:32;96320.31;;;20.70;55.28
41334;BME280;27078;46.428;6.256;2023-05-29T07:44:58;96310.88;;;20.87;54.86
41334;BME280;27078;46.428;6.256;2023-05-29T07:47:23;96310.28;;;20.99;54.48
41334;BME280;27078;46.428;6.256;2023-05-29T07:49:48;96318.56;;;21.17;54.10
41334;BME280;27078;46.428;6.256;2023-05-29T07:52:14;96312.16;;;21.31;53.65
41334;BME280;27078;46.428;6.256;2023-05-29T07:54:39;96304.28;;;21.37;53.97
41334;BME280;27078;46.428;6.256;2023-05-29T07:57:05;96308.22;;;21.47;54.19
41334;BME280;27078;46.428;6.256;2023-05-29T07:59:35;96305.53;;;21.54;53.03
41334;BME280;27078;46.428;6.256;2023-05-29T08:02:00;96307.59;;;21.65;52.67
41334;BME280;27078;46.428;6.256;2023-05-29T08:04:28;96300.56;;;21.71;52.61
41334;BME280;27078;46.428;6.256;2023-05-29T08:06:53;96300.53;;;21.78;52.07
41334;BME280;27078;46.428;6.256;2023-05-29T08:09:19;96296.63;;;21.80;52.26
41334;BME280;27078;46.428;6.256;2023-05-29T08:11:44;96294.53;;;21.89;50.90
41334;BME280;27078;46.428;6.256;2023-05-29T08:14:12;96290.16;;;21.94;51.64
41334;BME280;27078;46.428;6.256;2023-05-29T08:16:37;96290.56;;;21.98;51.18
41334;BME280;27078;46.428;6.256;2023-05-29T08:19:02;96285.81;;;22.00;50.01
41334;BME280;27078;46.428;6.256;2023-05-29T08:21:29;96281.44;;;22.06;50.30
41334;BME280;27078;46.428;6.256;2023-05-29T08:23:55;96286.34;;;22.15;49.36
41334;BME280;27078;46.428;6.256;2023-05-29T08:26:20;96281.22;;;22.14;48.77
41334;BME280;27078;46.428;6.256;2023-05-29T08:28:46;96287.00;;;22.11;46.24
41334;BME280;27078;46.428;6.256;2023-05-29T08:31:11;96273.97;;;22.14;49.14
41334;BME280;27078;46.428;6.256;2023-05-29T08:33:37;96290.72;;;22.16;48.11
41334;BME280;27078;46.428;6.256;2023-05-29T08:36:02;96280.53;;;22.32;48.01
41334;BME280;27078;46.428;6.256;2023-05-29T08:38:28;96280.91;;;22.42;49.31
41334;BME280;27078;46.428;6.256;2023-05-29T08:40:56;96289.28;;;22.59;48.50
41334;BME280;27078;46.428;6.256;2023-05-29T08:43:22;96282.19;;;22.65;47.73
41334;BME280;27078;46.428;6.256;2023-05-29T08:45:52;96276.56;;;22.73;48.89
41334;BME280;27078;46.428;6.256;2023-05-29T08:48:19;96278.22;;;22.74;45.87
41334;BME280;27078;46.428;6.256;2023-05-29T08:50:48;96279.88;;;22.75;46.96
41334;BME280;27078;46.428;6.256;2023-05-29T08:53:14;96284.94;;;22.58;44.38
41334;BME280;27078;46.428;6.256;2023-05-29T08:55:44;96284.47;;;22.68;46.97
41334;BME280;27078;46.428;6.256;2023-05-29T08:58:13;96289.47;;;22.64;45.19
41334;BME280;27078;46.428;6.256;2023-05-29T09:00:39;96295.66;;;22.65;45.43
41334;BME280;27078;46.428;6.256;2023-05-29T09:03:06;96292.38;;;22.63;45.86
41334;BME280;27078;46.428;6.256;2023-05-29T09:05:31;96292.66;;;22.86;47.14
41334;BME280;27078;46.428;6.256;2023-05-29T09:07:57;96285.50;;;22.98;48.34
41334;BME280;27078;46.428;6.256;2023-05-29T09:10:24;96289.44;;;23.03;46.76
41334;BME280;27078;46.428;6.256;2023-05-29T09:12:51;96292.81;;;23.23;48.52
41334;BME280;27078;46.428;6.256;2023-05-29T09:15:18;96295.50;;;23.23;46.36
41334;BME280;27078;46.428;6.256;2023-05-29T09:17:49;96295.09;;;23.26;48.09
41334;BME280;27078;46.428;6.256;2023-05-29T09:20:16;96294.78;;;23.34;48.15
41334;BME280;27078;46.428;6.256;2023-05-29T09:22:54;96294.16;;;23.57;46.37
41334;BME280;27078;46.428;6.256;2023-05-29T09:25:23;96304.31;;;23.62;47.71
41334;BME280;27078;46.428;6.256;2023-05-29T09:27:54;96302.25;;;23.57;45.60
41334;BME280;27078;46.428;6.256;2023-05-29T09:32:59;96308.56;;;23.45;45.88
41334;BME280;27078;46.428;6.256;2023-05-29T09:35:25;96316.56;;;23.58;46.66
41334;BME280;27078;46.428;6.256;2023-05-29T09:37:50;96304.31;;;23.62;45.41
41334;BME280;27078;46.428;6.256;2023-05-29T09:40:16;96312.53;;;23.67;45.51
41334;BME280;27078;46.428;6.256;2023-05-29T09:42:41;96309.38;;;23.70;43.13
41334;BME280;27078;46.428;6.256;2023-05-29T09:45:07;96304.16;;;23.75;45.13
41334;BME280;27078;46.428;6.256;2023-05-29T09:47:34;96304.66;;;23.66;43.42
41334;BME280;27078;46.428;6.256;2023-05-29T09:50:00;96298.78;;;23.75;44.72
41334;BME280;27078;46.428;6.256;2023-05-29T09:52:28;96297.53;;;23.78;43.37
41334;BME280;27078;46.428;6.256;2023-05-29T09:54:55;96300.06;;;23.91;42.78
41334;BME280;27078;46.428;6.256;2023-05-29T09:57:22;96299.34;;;23.84;44.15
41334;BME280;27078;46.428;6.256;2023-05-29T09:59:50;96297.34;;;23.73;40.47
41334;BME280;27078;46.428;6.256;2023-05-29T10:02:18;96300.28;;;24.08;44.49
41334;BME280;27078;46.428;6.256;2023-05-29T10:04:43;96286.69;;;24.03;42.53
41334;BME280;27078;46.428;6.256;2023-05-29T10:07:22;96286.50;;;24.16;42.85
41334;BME280;27078;46.428;6.256;2023-05-29T10:09:54;96282.13;;;24.34;41.37
41334;BME280;27078;46.428;6.256;2023-05-29T10:12:23;96287.19;;;24.30;41.85
41334;BME280;27078;46.428;6.256;2023-05-29T10:14:49;96272.09;;;24.41;41.85
41334;BME280;27078;46.428;6.256;2023-05-29T10:17:17;96282.94;;;24.71;43.41
41334;BME280;27078;46.428;6.256;2023-05-29T10:19:45;96276.88;;;24.88;43.37
41334;BME280;27078;46.428;6.256;2023-05-29T10:22:12;96268.13;;;25.04;41.21
41334;BME280;27078;46.428;6.256;2023-05-29T10:24:39;96265.88;;;25.01;40.29
41334;BME280;27078;46.428;6.256;2023-05-29T10:27:05;96263.66;;;25.10;41.57
41334;BME280;27078;46.428;6.256;2023-05-29T10:29:40;96266.50;;;25.15;40.18
41334;BME280;27078;46.428;6.256;2023-05-29T10:35:15;96276.75;;;25.48;44.42
41334;BME280;27078;46.428;6.256;2023-05-29T10:40:15;96276.50;;;25.73;44.62
41334;BME280;27078;46.428;6.256;2023-05-29T10:42:48;96275.47;;;25.74;43.80
41334;BME280;27078;46.428;6.256;2023-05-29T10:50:37;96276.66;;;25.55;42.48
41334;BME280;27078;46.428;6.256;2023-05-29T10:53:03;96275.59;;;25.68;46.91
41334;BME280;27078;46.428;6.256;2023-05-29T10:55:38;96279.94;;;25.80;46.26
41334;BME280;27078;46.428;6.256;2023-05-29T10:58:14;96272.19;;;25.72;47.25
41334;BME280;27078;46.428;6.256;2023-05-29T11:00:44;96281.22;;;25.43;42.72
41334;BME280;27078;46.428;6.256;2023-05-29T11:03:14;96280.63;;;25.64;42.75
41334;BME280;27078;46.428;6.256;2023-05-29T11:06:05;96275.34;;;25.81;43.29
41334;BME280;27078;46.428;6.256;2023-05-29T11:11:02;96265.34;;;25.58;37.82
41334;BME280;27078;46.428;6.256;2023-05-29T11:13:35;96272.88;;;25.79;41.74
41334;BME280;27078;46.428;6.256;2023-05-29T11:18:43;96260.75;;;25.58;37.43
41334;BME280;27078;46.428;6.256;2023-05-29T11:24:06;96266.06;;;25.53;35.70
41334;BME280;27078;46.428;6.256;2023-05-29T11:26:32;96258.06;;;25.70;35.35
41334;BME280;27078;46.428;6.256;2023-05-29T11:29:04;96252.75;;;25.99;38.90
41334;BME280;27078;46.428;6.256;2023-05-29T11:31:33;96248.56;;;26.32;38.38
41334;BME280;27078;46.428;6.256;2023-05-29T11:34:01;96241.16;;;26.27;37.61
41334;BME280;27078;46.428;6.256;2023-05-29T11:36:30;96234.53;;;26.35;37.66
41334;BME280;27078;46.428;6.256;2023-05-29T11:38:56;96230.84;;;26.41;37.60
41334;BME280;27078;46.428;6.256;2023-05-29T11:41:22;96234.34;;;26.25;35.78
41334;BME280;27078;46.428;6.256;2023-05-29T11:46:23;96214.63;;;26.41;35.82
41334;BME280;27078;46.428;6.256;2023-05-29T11:48:48;96224.97;;;26.44;36.79
41334;BME280;27078;46.428;6.256;2023-05-29T11:51:14;96226.81;;;26.55;38.38
41334;BME280;27078;46.428;6.256;2023-05-29T11:53:41;96221.44;;;26.44;33.58
41334;BME280;27078;46.428;6.256;2023-05-29T11:56:10;96223.91;;;26.45;34.73
41334;BME280;27078;46.428;6.256;2023-05-29T11:58:37;96215.78;;;26.45;34.97
41334;BME280;27078;46.428;6.256;2023-05-29T12:01:03;96215.94;;;26.38;33.46
41334;BME280;27078;46.428;6.256;2023-05-29T12:03:28;96204.75;;;26.35;34.31
41334;BME280;27078;46.428;6.256;2023-05-29T12:05:54;96218.00;;;26.19;31.25
41334;BME280;27078;46.428;6.256;2023-05-29T12:08:24;96199.72;;;25.98;31.50
41334;BME280;27078;46.428;6.256;2023-05-29T12:10:51;96205.25;;;26.32;33.09
41334;BME280;27078;46.428;6.256;2023-05-29T12:13:21;96200.69;;;26.49;33.95
41334;BME280;27078;46.428;6.256;2023-05-29T12:15:51;96197.47;;;26.64;34.46
41334;BME280;27078;46.428;6.256;2023-05-29T12:18:17;96191.19;;;26.47;32.65
41334;BME280;27078;46.428;6.256;2023-05-29T12:20:43;96193.38;;;26.62;34.68
41334;BME280;27078;46.428;6.256;2023-05-29T12:23:09;96197.00;;;26.67;34.34
41334;BME280;27078;46.428;6.256;2023-05-29T12:25:34;96202.16;;;26.69;33.48
41334;BME280;27078;46.428;6.256;2023-05-29T12:28:03;96197.22;;;26.37;31.09
41334;BME280;27078;46.428;6.256;2023-05-29T12:30:29;96201.56;;;26.67;34.26
41334;BME280;27078;46.428;6.256;2023-05-29T12:32:55;96197.97;;;26.61;32.58
41334;BME280;27078;46.428;6.256;2023-05-29T12:37:55;96195.88;;;26.51;31.67
41334;BME280;27078;46.428;6.256;2023-05-29T12:40:23;96192.00;;;26.47;32.43
41334;BME280;27078;46.428;6.256;2023-05-29T12:42:54;96198.28;;;26.65;34.38
41334;BME280;27078;46.428;6.256;2023-05-29T12:45:21;96201.00;;;26.81;33.47
41334;BME280;27078;46.428;6.256;2023-05-29T12:47:52;96196.84;;;26.74;33.04
41334;BME280;27078;46.428;6.256;2023-05-29T12:50:27;96186.41;;;26.66;31.46
41334;BME280;27078;46.428;6.256;2023-05-29T12:53:10;96193.97;;;26.80;33.73
41334;BME280;27078;46.428;6.256;2023-05-29T12:58:11;96188.13;;;26.72;31.96
41334;BME280;27078;46.428;6.256;2023-05-29T13:00:41;96183.19;;;26.69;32.63
41334;BME280;27078;46.428;6.256;2023-05-29T13:03:07;96188.56;;;26.80;33.67
41334;BME280;27078;46.428;6.256;2023-05-29T13:05:33;96185.28;;;26.78;32.46
41334;BME280;27078;46.428;6.256;2023-05-29T13:07:59;96192.06;;;26.81;31.68
41334;BME280;27078;46.428;6.256;2023-05-29T13:10:26;96178.06;;;26.55;31.18
41334;BME280;27078;46.428;6.256;2023-05-29T13:12:53;96171.03;;;26.54;31.43
41334;BME280;27078;46.428;6.256;2023-05-29T13:15:20;96183.78;;;26.71;33.11
41334;BME280;27078;46.428;6.256;2023-05-29T13:17:46;96179.94;;;26.84;33.26
41334;BME280;27078;46.428;6.256;2023-05-29T13:20:12;96173.78;;;26.88;32.10
41334;BME280;27078;46.428;6.256;2023-05-29T13:22:39;96162.63;;;27.01;33.60
41334;BME280;27078;46.428;6.256;2023-05-29T13:25:05;96163.03;;;26.93;32.27
41334;BME280;27078;46.428;6.256;2023-05-29T13:27:32;96165.00;;;26.81;31.63
41334;BME280;27078;46.428;6.256;2023-05-29T13:29:58;96151.56;;;26.69;32.22
41334;BME280;27078;46.428;6.256;2023-05-29T13:32:24;96162.38;;;26.86;33.86
41334;BME280;27078;46.428;6.256;2023-05-29T13:34:49;96163.78;;;26.89;32.91